createdAt,value
2019-06-15T00:00:19.284Z,4
2019-06-15T00:01:29.223Z,4
2019-06-15T00:02:39.161Z,4
2019-06-15T00:03:49.098Z,4
2019-06-15T00:04:59.093Z,4
2019-06-15T00:06:08.864Z,4
2019-06-15T00:07:18.801Z,4
2019-06-15T00:08:28.736Z,4
2019-06-15T00:09:38.452Z,4
2019-06-15T00:10:48.440Z,4
2019-06-15T00:11:58.379Z,0
2019-06-15T00:13:08.349Z,0
2019-06-15T00:14:18.284Z,0
2019-06-15T00:15:28.252Z,0
2019-06-15T00:16:38.209Z,0
2019-06-15T00:17:48.332Z,4
2019-06-15T00:18:58.451Z,4
2019-06-15T00:20:08.568Z,4
2019-06-15T00:21:18.538Z,4
2019-06-15T00:22:28.475Z,4
2019-06-15T00:23:38.160Z,4
2019-06-15T00:24:48.092Z,4
2019-06-15T00:25:57.787Z,4
2019-06-15T00:27:07.732Z,4
2019-06-15T00:28:17.682Z,4
2019-06-15T00:29:27.620Z,8
2019-06-15T00:30:37.567Z,8
2019-06-15T00:31:47.532Z,4
2019-06-15T00:32:57.502Z,4
2019-06-15T00:34:07.452Z,4
2019-06-15T00:35:17.388Z,4
2019-06-15T00:36:27.330Z,8
2019-06-15T00:37:37.264Z,8
2019-06-15T00:38:47.200Z,8
2019-06-15T00:39:57.143Z,4
2019-06-15T00:41:06.833Z,8
2019-06-15T00:42:16.764Z,8
2019-06-15T00:43:26.455Z,8
2019-06-15T00:44:36.391Z,12
2019-06-15T00:45:46.377Z,8
2019-06-15T00:46:56.320Z,8
2019-06-15T00:48:06.251Z,12
2019-06-15T00:49:16.058Z,12
2019-06-15T00:50:25.751Z,12
2019-06-15T00:51:35.722Z,12
2019-06-15T00:52:45.705Z,16
2019-06-15T00:53:55.636Z,12
2019-06-15T00:55:05.660Z,16
2019-06-15T00:56:15.607Z,16
2019-06-15T00:57:25.549Z,20
2019-06-15T00:58:35.259Z,16
2019-06-15T00:59:45.187Z,20
2019-06-15T01:00:55.120Z,20
2019-06-15T01:02:05.071Z,20
2019-06-15T01:03:15.021Z,24
2019-06-15T01:04:24.961Z,24
2019-06-15T01:05:34.683Z,24
2019-06-15T01:06:44.617Z,28
2019-06-15T01:07:54.550Z,32
2019-06-15T01:09:04.509Z,32
2019-06-15T01:10:14.445Z,36
2019-06-15T01:11:24.394Z,36
2019-06-15T01:12:34.096Z,40
2019-06-15T01:13:44.063Z,44
2019-06-15T01:14:54.011Z,44
2019-06-15T01:16:04.111Z,44
2019-06-15T01:17:14.053Z,48
2019-06-15T01:18:23.991Z,52
2019-06-15T01:19:33.953Z,56
2019-06-15T01:20:43.899Z,56
2019-06-15T01:21:53.847Z,60
2019-06-15T01:23:03.786Z,68
2019-06-15T01:24:13.723Z,68
2019-06-15T01:25:23.679Z,72
2019-06-15T01:26:33.637Z,80
2019-06-15T01:27:43.571Z,84
2019-06-15T01:28:53.516Z,88
2019-06-15T01:30:03.196Z,92
2019-06-15T01:31:12.650Z,96
2019-06-15T01:32:22.579Z,100
2019-06-15T01:33:32.520Z,108
2019-06-15T01:34:42.467Z,116
2019-06-15T01:35:52.416Z,120
2019-06-15T01:37:02.355Z,128
2019-06-15T01:38:12.292Z,140
2019-06-15T01:39:22.234Z,144
2019-06-15T01:40:32.189Z,152
2019-06-15T01:41:42.125Z,160
2019-06-15T01:42:52.058Z,172
2019-06-15T01:44:01.991Z,180
2019-06-15T01:45:11.926Z,192
2019-06-15T01:46:21.877Z,200
2019-06-15T01:47:31.564Z,212
2019-06-15T01:48:41.546Z,224
2019-06-15T01:49:51.526Z,236
2019-06-15T01:51:01.210Z,248
2019-06-15T01:52:11.161Z,260
2019-06-15T01:53:21.094Z,272
2019-06-15T01:54:31.021Z,288
2019-06-15T01:55:40.961Z,304
2019-06-15T01:56:50.905Z,320
2019-06-15T01:58:00.843Z,332
2019-06-15T01:59:10.869Z,352
2019-06-15T02:00:20.809Z,368
2019-06-15T02:01:30.741Z,388
2019-06-15T02:02:40.675Z,404
2019-06-15T02:03:50.659Z,424
2019-06-15T02:05:00.626Z,440
2019-06-15T02:06:10.338Z,460
2019-06-15T02:07:20.106Z,480
2019-06-15T02:08:30.064Z,496
2019-06-15T02:09:39.499Z,516
2019-06-15T02:10:49.433Z,532
2019-06-15T02:11:59.377Z,552
2019-06-15T02:13:09.063Z,572
2019-06-15T02:14:19.022Z,596
2019-06-15T02:15:28.963Z,616
2019-06-15T02:16:38.648Z,636
2019-06-15T02:17:48.678Z,652
2019-06-15T02:18:58.608Z,676
2019-06-15T02:20:08.580Z,696
2019-06-15T02:21:18.294Z,720
2019-06-15T02:22:28.226Z,740
2019-06-15T02:23:37.949Z,764
2019-06-15T02:24:47.719Z,784
2019-06-15T02:25:57.666Z,804
2019-06-15T02:27:07.363Z,824
2019-06-15T02:28:17.040Z,848
2019-06-15T02:29:26.973Z,872
2019-06-15T02:30:37.017Z,892
2019-06-15T02:31:46.751Z,916
2019-06-15T02:32:56.686Z,940
2019-06-15T02:34:06.636Z,964
2019-06-15T02:35:16.641Z,984
2019-06-15T02:36:26.362Z,1008
2019-06-15T02:37:36.316Z,1028
2019-06-15T02:38:46.272Z,1056
2019-06-15T02:39:55.971Z,1076
2019-06-15T02:41:05.920Z,1100
2019-06-15T02:42:15.659Z,1124
2019-06-15T02:43:25.614Z,1144
2019-06-15T02:44:35.581Z,1168
2019-06-15T02:45:45.552Z,1188
2019-06-15T02:46:55.537Z,1212
2019-06-15T02:48:05.495Z,1236
2019-06-15T02:49:15.441Z,1256
2019-06-15T02:50:25.125Z,1284
2019-06-15T02:51:35.066Z,1300
2019-06-15T02:52:45.001Z,1328
2019-06-15T02:53:54.985Z,1348
2019-06-15T02:55:04.917Z,1372
2019-06-15T02:56:14.857Z,1388
2019-06-15T02:57:24.562Z,1416
2019-06-15T02:58:34.578Z,1436
2019-06-15T02:59:44.031Z,1456
2019-06-15T03:00:53.976Z,1476
2019-06-15T03:02:04.000Z,1500
2019-06-15T03:03:13.977Z,1520
2019-06-15T03:04:23.930Z,1544
2019-06-15T03:05:33.864Z,1560
2019-06-15T03:06:43.838Z,1584
2019-06-15T03:07:53.800Z,1604
2019-06-15T03:09:03.751Z,1624
2019-06-15T03:10:13.687Z,1644
2019-06-15T03:11:23.674Z,1664
2019-06-15T03:12:33.612Z,1688
2019-06-15T03:13:43.701Z,1708
2019-06-15T03:14:53.641Z,1728
2019-06-15T03:16:03.591Z,1744
2019-06-15T03:17:13.572Z,1764
2019-06-15T03:18:23.505Z,1780
2019-06-15T03:19:33.478Z,1800
2019-06-15T03:20:43.185Z,1820
2019-06-15T03:21:53.134Z,1836
2019-06-15T03:23:03.139Z,1852
2019-06-15T03:24:13.139Z,1872
2019-06-15T03:25:23.098Z,1888
2019-06-15T03:26:33.046Z,1908
2019-06-15T03:27:42.723Z,1920
2019-06-15T03:28:52.662Z,1944
2019-06-15T03:30:02.655Z,1956
2019-06-15T03:31:12.657Z,1972
2019-06-15T03:32:22.627Z,1992
2019-06-15T03:33:32.615Z,2008
2019-06-15T03:34:42.414Z,2024
2019-06-15T03:35:52.360Z,2040
2019-06-15T03:37:02.303Z,2056
2019-06-15T03:38:12.294Z,2072
2019-06-15T03:39:22.283Z,2088
2019-06-15T03:40:32.027Z,2104
2019-06-15T03:41:41.969Z,2120
2019-06-15T03:42:51.703Z,2132
2019-06-15T03:44:01.388Z,2148
2019-06-15T03:45:11.351Z,2160
2019-06-15T03:46:21.299Z,2180
2019-06-15T03:47:30.732Z,2192
2019-06-15T03:48:40.409Z,2208
2019-06-15T03:49:50.402Z,2224
2019-06-15T03:51:00.333Z,2240
2019-06-15T03:52:10.350Z,2252
2019-06-15T03:53:20.092Z,2268
2019-06-15T03:54:30.045Z,2280
2019-06-15T03:55:42.910Z,2296
2019-06-15T03:56:52.912Z,2308
2019-06-15T03:58:02.865Z,2320
2019-06-15T03:59:12.800Z,2328
2019-06-15T04:00:22.517Z,2340
2019-06-15T04:01:32.457Z,2348
2019-06-15T04:02:42.400Z,2360
2019-06-15T04:03:51.842Z,2372
2019-06-15T04:05:01.792Z,2388
2019-06-15T04:06:11.761Z,2396
2019-06-15T04:07:21.505Z,2404
2019-06-15T04:08:31.194Z,2416
2019-06-15T04:09:40.925Z,2424
2019-06-15T04:10:50.873Z,2440
2019-06-15T04:12:00.807Z,2444
2019-06-15T04:13:10.490Z,2452
2019-06-15T04:14:20.447Z,2464
2019-06-15T04:15:30.173Z,2472
2019-06-15T04:16:40.110Z,2484
2019-06-15T04:17:50.057Z,2492
2019-06-15T04:18:59.992Z,2500
2019-06-15T04:20:10.031Z,2508
2019-06-15T04:21:20.002Z,2520
2019-06-15T04:22:29.942Z,2528
2019-06-15T04:23:39.877Z,2536
2019-06-15T04:24:49.826Z,2544
2019-06-15T04:25:59.520Z,2552
2019-06-15T04:27:09.455Z,2560
2019-06-15T04:28:19.187Z,2568
2019-06-15T04:29:29.153Z,2576
2019-06-15T04:30:39.093Z,2584
2019-06-15T04:31:48.791Z,2596
2019-06-15T04:32:58.736Z,2600
2019-06-15T04:34:08.697Z,2608
2019-06-15T04:35:18.679Z,2616
2019-06-15T04:36:28.645Z,2628
2019-06-15T04:37:38.580Z,2632
2019-06-15T04:38:48.521Z,2640
2019-06-15T04:39:58.461Z,2648
2019-06-15T04:41:08.985Z,2656
2019-06-15T04:42:18.935Z,2664
2019-06-15T04:43:28.884Z,2672
2019-06-15T04:44:38.858Z,2680
2019-06-15T04:45:48.839Z,2684
2019-06-15T04:46:58.786Z,2688
2019-06-15T04:48:08.770Z,2696
2019-06-15T04:49:18.706Z,2704
2019-06-15T04:50:28.677Z,2708
2019-06-15T04:51:38.628Z,2716
2019-06-15T04:52:48.320Z,2720
2019-06-15T04:53:58.251Z,2728
2019-06-15T04:55:08.208Z,2732
2019-06-15T04:56:18.163Z,2736
2019-06-15T04:57:28.100Z,2744
2019-06-15T04:58:37.806Z,2748
2019-06-15T04:59:47.750Z,2756
2019-06-15T05:00:57.714Z,2756
2019-06-15T05:02:07.754Z,2764
2019-06-15T05:03:17.453Z,2768
2019-06-15T05:04:27.388Z,2776
2019-06-15T05:05:37.327Z,2780
2019-06-15T05:06:47.262Z,2788
2019-06-15T05:07:57.213Z,2796
2019-06-15T05:09:07.166Z,2800
2019-06-15T05:10:17.131Z,2804
2019-06-15T05:11:27.064Z,2808
2019-06-15T05:12:36.777Z,2816
2019-06-15T05:13:46.964Z,2820
2019-06-15T05:14:56.937Z,2824
2019-06-15T05:16:06.913Z,2828
2019-06-15T05:17:16.900Z,2832
2019-06-15T05:18:26.686Z,2836
2019-06-15T05:19:36.414Z,2844
2019-06-15T05:20:46.149Z,2848
2019-06-15T05:21:56.088Z,2852
2019-06-15T05:23:06.047Z,2860
2019-06-15T05:24:15.993Z,2856
2019-06-15T05:25:25.925Z,2864
2019-06-15T05:26:35.605Z,2872
2019-06-15T05:27:45.546Z,2876
2019-06-15T05:28:55.243Z,2880
2019-06-15T05:30:05.193Z,2884
2019-06-15T05:31:15.139Z,2884
2019-06-15T05:32:25.078Z,2892
2019-06-15T05:33:35.053Z,2896
2019-06-15T05:34:44.990Z,2896
2019-06-15T05:35:54.927Z,2904
2019-06-15T05:37:04.942Z,2908
2019-06-15T05:38:14.677Z,2912
2019-06-15T05:39:24.669Z,2920
2019-06-15T05:40:34.616Z,2924
2019-06-15T05:41:44.590Z,2932
2019-06-15T05:42:54.555Z,2936
2019-06-15T05:44:04.531Z,2940
2019-06-15T05:45:14.478Z,2940
2019-06-15T05:46:24.421Z,2944
2019-06-15T05:47:34.357Z,2952
2019-06-15T05:48:44.301Z,2960
2019-06-15T05:49:54.251Z,2964
2019-06-15T05:51:05.899Z,2960
2019-06-15T05:52:15.857Z,2968
2019-06-15T05:53:25.814Z,2976
2019-06-15T05:54:35.845Z,2976
2019-06-15T05:55:45.851Z,2976
2019-06-15T05:56:55.615Z,2980
2019-06-15T05:58:05.583Z,2980
2019-06-15T05:59:15.546Z,2984
2019-06-15T06:00:25.556Z,2988
2019-06-15T06:01:35.635Z,2992
2019-06-15T06:02:45.324Z,2996
2019-06-15T06:03:55.312Z,3000
2019-06-15T06:05:05.243Z,3008
2019-06-15T06:06:15.197Z,3004
2019-06-15T06:07:25.134Z,3012
2019-06-15T06:08:34.828Z,3012
2019-06-15T06:09:44.780Z,3016
2019-06-15T06:10:54.764Z,3028
2019-06-15T06:12:05.457Z,3028
2019-06-15T06:13:15.395Z,3032
2019-06-15T06:14:25.105Z,3036
2019-06-15T06:15:35.050Z,3044
2019-06-15T06:16:45.012Z,3048
2019-06-15T06:17:54.952Z,3056
2019-06-15T06:19:04.885Z,3064
2019-06-15T06:20:14.837Z,3064
2019-06-15T06:21:24.859Z,3072
2019-06-15T06:22:34.805Z,3076
2019-06-15T06:23:44.794Z,3080
2019-06-15T06:24:54.730Z,3080
2019-06-15T06:26:04.757Z,3084
2019-06-15T06:27:14.698Z,3084
2019-06-15T06:28:24.137Z,3092
2019-06-15T06:29:34.193Z,3096
2019-06-15T06:30:43.887Z,3100
2019-06-15T06:31:53.998Z,3100
2019-06-15T06:33:03.712Z,3096
2019-06-15T06:34:13.713Z,3100
2019-06-15T06:35:23.662Z,3104
2019-06-15T06:36:33.625Z,3108
2019-06-15T06:37:43.682Z,3116
2019-06-15T06:38:53.655Z,3116
2019-06-15T06:40:03.600Z,3120
2019-06-15T06:41:15.877Z,3124
2019-06-15T06:42:25.562Z,3128
2019-06-15T06:43:35.263Z,3136
2019-06-15T06:44:45.215Z,3148
2019-06-15T06:45:55.170Z,3152
2019-06-15T06:47:05.260Z,3152
2019-06-15T06:48:15.264Z,3164
2019-06-15T06:49:25.197Z,3164
2019-06-15T06:50:35.177Z,3172
2019-06-15T06:51:45.141Z,3176
2019-06-15T06:52:55.101Z,3184
2019-06-15T06:54:05.079Z,3184
2019-06-15T06:55:15.038Z,3188
2019-06-15T06:56:24.999Z,3196
2019-06-15T06:57:34.984Z,3204
2019-06-15T06:58:58.898Z,3216
2019-06-15T07:00:08.423Z,3224
2019-06-15T07:01:18.361Z,3220
2019-06-15T07:02:28.317Z,3228
2019-06-15T07:03:38.025Z,3236
2019-06-15T07:04:48.030Z,3240
2019-06-15T07:05:57.996Z,3248
2019-06-15T07:07:07.932Z,3260
2019-06-15T07:08:17.884Z,3264
2019-06-15T07:09:27.611Z,3272
2019-06-15T07:10:37.557Z,3276
2019-06-15T07:11:47.492Z,3280
2019-06-15T07:12:57.435Z,3284
2019-06-15T07:14:07.522Z,3288
2019-06-15T07:15:17.236Z,3292
2019-06-15T07:16:27.222Z,3304
2019-06-15T07:17:37.160Z,3304
2019-06-15T07:18:47.110Z,3312
2019-06-15T07:19:57.089Z,3312
2019-06-15T07:21:07.060Z,3316
2019-06-15T07:22:17.089Z,3320
2019-06-15T07:23:26.806Z,3328
2019-06-15T07:24:39.738Z,3332
2019-06-15T07:25:49.714Z,3336
2019-06-15T07:26:59.722Z,3336
2019-06-15T07:28:15.509Z,3344
2019-06-15T07:29:24.994Z,3352
2019-06-15T07:30:34.718Z,3356
2019-06-15T07:31:44.415Z,3356
2019-06-15T07:32:54.115Z,3360
2019-06-15T07:34:04.052Z,3360
2019-06-15T07:35:14.008Z,3360
2019-06-15T07:36:23.967Z,3372
2019-06-15T07:37:33.905Z,3376
2019-06-15T07:38:43.595Z,3384
2019-06-15T07:39:53.338Z,3388
2019-06-15T07:41:03.290Z,3396
2019-06-15T07:42:13.261Z,3396
2019-06-15T07:43:22.708Z,3408
2019-06-15T07:44:32.656Z,3412
2019-06-15T07:45:42.625Z,3428
2019-06-15T07:46:52.647Z,3440
2019-06-15T07:48:02.586Z,3448
2019-06-15T07:49:12.541Z,3452
2019-06-15T07:50:22.551Z,3464
2019-06-15T07:51:32.491Z,3472
2019-06-15T07:52:42.466Z,3480
2019-06-15T07:53:52.405Z,3492
2019-06-15T07:55:02.369Z,3504
2019-06-15T07:56:12.317Z,3508
2019-06-15T07:57:22.308Z,3512
2019-06-15T07:58:32.078Z,3516
2019-06-15T07:59:42.021Z,3528
2019-06-15T08:00:51.970Z,3536
2019-06-15T08:02:02.121Z,3540
2019-06-15T08:03:12.068Z,3548
2019-06-15T08:04:22.007Z,3552
2019-06-15T08:05:31.944Z,3564
2019-06-15T08:06:41.885Z,3568
2019-06-15T08:07:51.830Z,3572
2019-06-15T08:09:01.811Z,3588
2019-06-15T08:10:11.751Z,3592
2019-06-15T08:11:21.682Z,3592
2019-06-15T08:12:31.637Z,3600
2019-06-15T08:13:41.624Z,3616
2019-06-15T08:14:51.362Z,3628
2019-06-15T08:16:01.337Z,3640
2019-06-15T08:17:11.299Z,3652
2019-06-15T08:18:20.990Z,3660
2019-06-15T08:19:30.939Z,3664
2019-06-15T08:20:40.915Z,3672
2019-06-15T08:21:50.848Z,3680
2019-06-15T08:23:01.020Z,3692
2019-06-15T08:24:12.182Z,3700
2019-06-15T08:25:22.136Z,3712
2019-06-15T08:26:32.093Z,3720
2019-06-15T08:27:42.127Z,3724
2019-06-15T08:28:52.117Z,3736
2019-06-15T08:30:02.167Z,3748
2019-06-15T08:31:12.203Z,3764
2019-06-15T08:32:21.974Z,3776
2019-06-15T08:33:31.742Z,3780
2019-06-15T08:34:41.706Z,3792
2019-06-15T08:35:51.659Z,3804
2019-06-15T08:37:01.744Z,3808
2019-06-15T08:38:11.470Z,3820
2019-06-15T08:39:21.450Z,3824
2019-06-15T08:40:31.393Z,3840
2019-06-15T08:41:41.340Z,3856
2019-06-15T08:42:51.080Z,3864
2019-06-15T08:44:01.017Z,3872
2019-06-15T08:45:10.978Z,3880
2019-06-15T08:46:20.670Z,3888
2019-06-15T08:47:30.620Z,3896
2019-06-15T08:48:40.623Z,3908
2019-06-15T08:49:50.598Z,3940
2019-06-15T08:51:00.584Z,3932
2019-06-15T08:52:11.604Z,3944
2019-06-15T08:53:21.318Z,3960
2019-06-15T08:54:31.281Z,3964
2019-06-15T08:55:41.407Z,3968
2019-06-15T08:56:51.345Z,3980
2019-06-15T08:58:01.290Z,3988
2019-06-15T08:59:11.247Z,3996
2019-06-15T09:00:21.205Z,4012
2019-06-15T09:01:30.664Z,4016
2019-06-15T09:02:40.624Z,4028
2019-06-15T09:03:53.913Z,4040
2019-06-15T09:05:03.880Z,4052
2019-06-15T09:06:13.847Z,4060
2019-06-15T09:07:23.636Z,4068
2019-06-15T09:08:33.323Z,4084
2019-06-15T09:09:42.877Z,4092
2019-06-15T09:10:52.816Z,4104
2019-06-15T09:12:02.858Z,4112
2019-06-15T09:13:12.817Z,4124
2019-06-15T09:14:22.766Z,4136
2019-06-15T09:15:32.717Z,4152
2019-06-15T09:16:42.430Z,4164
2019-06-15T09:17:52.149Z,4176
2019-06-15T09:19:04.700Z,4188
2019-06-15T09:20:14.389Z,4200
2019-06-15T09:21:24.333Z,4216
2019-06-15T09:22:34.271Z,4224
2019-06-15T09:23:44.254Z,4248
2019-06-15T09:24:53.947Z,4260
2019-06-15T09:26:03.898Z,4272
2019-06-15T09:27:13.646Z,4288
2019-06-15T09:28:23.356Z,4304
2019-06-15T09:29:33.319Z,4316
2019-06-15T09:30:43.271Z,4328
2019-06-15T09:31:53.670Z,4344
2019-06-15T09:33:03.462Z,4352
2019-06-15T09:34:26.191Z,4364
2019-06-15T09:35:36.144Z,4376
2019-06-15T09:36:46.101Z,4384
2019-06-15T09:37:56.052Z,4392
2019-06-15T09:39:05.759Z,4404
2019-06-15T09:40:15.732Z,4416
2019-06-15T09:41:25.669Z,4432
2019-06-15T09:42:35.694Z,4440
2019-06-15T09:43:45.735Z,4452
2019-06-15T09:44:55.678Z,4460
2019-06-15T09:46:05.632Z,4476
2019-06-15T09:47:15.594Z,4492
2019-06-15T09:48:25.641Z,4500
2019-06-15T09:49:35.626Z,4516
2019-06-15T09:50:45.566Z,4524
2019-06-15T09:51:55.627Z,4532
2019-06-15T09:53:05.735Z,4544
2019-06-15T09:54:15.419Z,4560
2019-06-15T09:55:25.361Z,4564
2019-06-15T09:56:35.304Z,4580
2019-06-15T09:57:45.020Z,4588
2019-06-15T09:58:54.730Z,4596
2019-06-15T10:00:05.382Z,4612
2019-06-15T10:01:15.348Z,4624
2019-06-15T10:02:25.308Z,4636
2019-06-15T10:03:35.056Z,4652
2019-06-15T10:04:45.005Z,4664
2019-06-15T10:05:54.952Z,4676
2019-06-15T10:07:04.903Z,4692
2019-06-15T10:08:14.862Z,4696
2019-06-15T10:09:24.552Z,4704
2019-06-15T10:10:34.502Z,4724
2019-06-15T10:11:44.456Z,4732
2019-06-15T10:12:54.398Z,4748
2019-06-15T10:14:04.371Z,4760
2019-06-15T10:15:14.311Z,4776
2019-06-15T10:16:24.406Z,4788
2019-06-15T10:17:34.351Z,4800
2019-06-15T10:18:46.153Z,4816
2019-06-15T10:19:55.933Z,4828
2019-06-15T10:21:05.909Z,4840
2019-06-15T10:22:15.628Z,4856
2019-06-15T10:23:25.335Z,4872
2019-06-15T10:24:35.283Z,4888
2019-06-15T10:25:45.340Z,4900
2019-06-15T10:26:58.066Z,4908
2019-06-15T10:28:08.291Z,4924
2019-06-15T10:29:18.273Z,4932
2019-06-15T10:30:28.235Z,4940
2019-06-15T10:31:38.370Z,4952
2019-06-15T10:32:48.337Z,4960
2019-06-15T10:33:58.042Z,4972
2019-06-15T10:35:07.890Z,4984
2019-06-15T10:36:17.856Z,5000
2019-06-15T10:37:27.542Z,5008
2019-06-15T10:38:37.107Z,5020
2019-06-15T10:39:47.091Z,5036
2019-06-15T10:40:56.784Z,5052
2019-06-15T10:42:06.725Z,5068
2019-06-15T10:43:16.695Z,5080
2019-06-15T10:44:26.767Z,5096
2019-06-15T10:45:36.518Z,5100
2019-06-15T10:46:46.461Z,5116
2019-06-15T10:47:56.401Z,5132
2019-06-15T10:49:06.348Z,5148
2019-06-15T10:50:16.295Z,5164
2019-06-15T10:51:26.362Z,5180
2019-06-15T10:52:36.081Z,5200
2019-06-15T10:53:46.030Z,5220
2019-06-15T10:54:55.732Z,5228
2019-06-15T10:56:05.480Z,5240
2019-06-15T10:57:15.440Z,5256
2019-06-15T10:58:25.155Z,5268
2019-06-15T10:59:35.165Z,5284
2019-06-15T11:00:47.959Z,5296
2019-06-15T11:01:58.516Z,5308
2019-06-15T11:03:08.511Z,5316
2019-06-15T11:04:18.458Z,5336
2019-06-15T11:05:28.414Z,5352
2019-06-15T11:06:38.447Z,5356
2019-06-15T11:07:48.473Z,5368
2019-06-15T11:08:58.416Z,5384
2019-06-15T11:10:08.399Z,5400
2019-06-15T11:11:20.876Z,5420
2019-06-15T11:12:45.215Z,5440
2019-06-15T11:13:55.784Z,5464
2019-06-15T11:15:05.745Z,5488
2019-06-15T11:16:16.030Z,5520
2019-06-15T11:17:26.005Z,5564
2019-06-15T11:18:35.955Z,5592
2019-06-15T11:19:45.447Z,5624
2019-06-15T11:20:58.694Z,5660
2019-06-15T11:22:08.896Z,5692
2019-06-15T11:23:18.861Z,5716
2019-06-15T11:24:28.811Z,5736
2019-06-15T11:25:38.762Z,5756
2019-06-15T11:26:49.104Z,5776
2019-06-15T11:27:59.046Z,5800
2019-06-15T11:29:09.006Z,5844
2019-06-15T11:30:21.667Z,5924
2019-06-15T11:31:31.605Z,5976
2019-06-15T11:32:41.565Z,6004
2019-06-15T11:33:51.506Z,6080
2019-06-15T11:35:01.359Z,6388
2019-06-15T11:36:11.239Z,7204
2019-06-15T11:37:21.200Z,9288
2019-06-15T11:38:31.172Z,37888
2019-06-15T11:39:41.118Z,87264
2019-06-15T11:40:51.062Z,95136
2019-06-15T11:42:00.999Z,95200
2019-06-15T11:43:10.957Z,93984
2019-06-15T11:44:20.905Z,95840
2019-06-15T11:45:30.876Z,95520
2019-06-15T11:46:40.910Z,92672
2019-06-15T11:47:50.897Z,98368
2019-06-15T11:49:00.620Z,99840
2019-06-15T11:50:12.011Z,94560
2019-06-15T11:51:22.126Z,99584
2019-06-15T11:52:32.117Z,97536
2019-06-15T11:53:42.085Z,94240
2019-06-15T11:54:52.123Z,98848
2019-06-15T11:56:01.582Z,96992
2019-06-15T11:57:11.542Z,96128
2019-06-15T11:58:21.325Z,93568
2019-06-15T11:59:31.277Z,95328
2019-06-15T12:00:41.233Z,93856
2019-06-15T12:01:51.191Z,95904
2019-06-15T12:03:01.145Z,95488
2019-06-15T12:04:11.189Z,93856
2019-06-15T12:05:21.179Z,92352
2019-06-15T12:06:31.135Z,91456
2019-06-15T12:07:41.698Z,92576
2019-06-15T12:08:51.697Z,92704
2019-06-15T12:10:01.653Z,89120
2019-06-15T12:11:11.600Z,88800
2019-06-15T12:12:21.318Z,81632
2019-06-15T12:13:31.275Z,81408
2019-06-15T12:14:40.983Z,79808
2019-06-15T12:15:50.994Z,84032
2019-06-15T12:17:01.019Z,77664
2019-06-15T12:18:11.057Z,72864
2019-06-15T12:19:21.017Z,75200
2019-06-15T12:20:30.987Z,76864
2019-06-15T12:21:40.698Z,80032
2019-06-15T12:22:50.656Z,86080
2019-06-15T12:24:00.610Z,88640
2019-06-15T12:25:10.331Z,90784
2019-06-15T12:26:20.313Z,93440
2019-06-15T12:27:30.286Z,92992
2019-06-15T12:28:40.363Z,92352
2019-06-15T12:29:50.326Z,89440
2019-06-15T12:31:00.304Z,90336
2019-06-15T12:32:10.322Z,86624
2019-06-15T12:33:20.377Z,73792
2019-06-15T12:34:30.084Z,72640
2019-06-15T12:35:40.058Z,80896
2019-06-15T12:36:50.023Z,88832
2019-06-15T12:37:59.757Z,91712
2019-06-15T12:39:09.467Z,91488
2019-06-15T12:40:19.498Z,89536
2019-06-15T12:41:29.472Z,87552
2019-06-15T12:42:39.435Z,92064
2019-06-15T12:43:49.393Z,96000
2019-06-15T12:44:59.356Z,96768
2019-06-15T12:46:09.239Z,95072
2019-06-15T12:47:19.202Z,94688
2019-06-15T12:48:29.179Z,98432
2019-06-15T12:49:39.189Z,92736
2019-06-15T12:50:49.147Z,91136
2019-06-15T12:51:59.110Z,95488
2019-06-15T12:53:09.087Z,91360
2019-06-15T12:54:19.049Z,87360
2019-06-15T12:55:29.026Z,87776
2019-06-15T12:56:39.005Z,92000
2019-06-15T12:57:52.125Z,91808
2019-06-15T12:59:02.530Z,92576
2019-06-15T13:00:12.530Z,90752
2019-06-15T13:01:22.525Z,92416
2019-06-15T13:02:32.516Z,92000
2019-06-15T13:03:42.554Z,94080
2019-06-15T13:04:52.528Z,91712
2019-06-15T13:06:02.501Z,90816
2019-06-15T13:07:12.479Z,92672
2019-06-15T13:08:22.220Z,89504
2019-06-15T13:09:32.207Z,93280
2019-06-15T13:10:42.166Z,92576
2019-06-15T13:11:52.154Z,91040
2019-06-15T13:13:02.110Z,88640
2019-06-15T13:14:11.830Z,92256
2019-06-15T13:15:21.845Z,94912
2019-06-15T13:16:47.989Z,94496
2019-06-15T13:17:58.061Z,91264
2019-06-15T13:19:08.036Z,89152
2019-06-15T13:20:18.034Z,89760
2019-06-15T13:21:27.992Z,92896
2019-06-15T13:22:37.958Z,95584
2019-06-15T13:23:47.918Z,95680
2019-06-15T13:24:58.053Z,94432
2019-06-15T13:26:08.093Z,90912
2019-06-15T13:27:18.127Z,94016
2019-06-15T13:28:28.093Z,88544
2019-06-15T13:29:38.069Z,84960
2019-06-15T13:30:48.041Z,88896
2019-06-15T13:31:58.015Z,92576
2019-06-15T13:33:07.981Z,92672
2019-06-15T13:34:17.946Z,89920
2019-06-15T13:35:27.935Z,89664
2019-06-15T13:36:37.664Z,90848
2019-06-15T13:37:49.632Z,88448
2019-06-15T13:38:59.344Z,89088
2019-06-15T13:40:09.048Z,93184
2019-06-15T13:41:19.011Z,93344
2019-06-15T13:42:32.160Z,94688
2019-06-15T13:43:42.123Z,95680
2019-06-15T13:44:52.086Z,95808
2019-06-15T13:46:01.861Z,94688
2019-06-15T13:47:11.915Z,94336
2019-06-15T13:48:21.874Z,93568
2019-06-15T13:49:31.839Z,100224
2019-06-15T13:50:41.801Z,109216
2019-06-15T13:51:51.770Z,105024
2019-06-15T13:53:01.758Z,102752
2019-06-15T13:54:11.736Z,101152
2019-06-15T13:55:24.318Z,95264
2019-06-15T13:56:34.294Z,94784
2019-06-15T13:57:44.053Z,96672
2019-06-15T13:58:54.058Z,97120
2019-06-15T14:00:04.182Z,95872
2019-06-15T14:01:14.175Z,87584
2019-06-15T14:02:24.195Z,96000
2019-06-15T14:03:34.197Z,95328
2019-06-15T14:04:44.167Z,94016
2019-06-15T14:05:54.177Z,90048
2019-06-15T14:07:04.184Z,92640
2019-06-15T14:08:14.325Z,91680
2019-06-15T14:09:24.299Z,86784
2019-06-15T14:10:34.065Z,88064
2019-06-15T14:11:44.035Z,87712
2019-06-15T14:12:53.993Z,84480
2019-06-15T14:14:03.453Z,85632
2019-06-15T14:15:13.175Z,88000
2019-06-15T14:16:22.935Z,87040
2019-06-15T14:17:32.681Z,86272
2019-06-15T14:18:42.385Z,88352
2019-06-15T14:19:52.343Z,85216
2019-06-15T14:21:02.316Z,84512
2019-06-15T14:22:12.281Z,83648
2019-06-15T14:23:22.246Z,87392
2019-06-15T14:24:32.213Z,87744
2019-06-15T14:25:41.952Z,88288
2019-06-15T14:26:51.913Z,90048
2019-06-15T14:28:01.639Z,88544
2019-06-15T14:29:11.602Z,87200
2019-06-15T14:30:25.165Z,84320
2019-06-15T14:31:49.223Z,80576
2019-06-15T14:32:59.621Z,79392
2019-06-15T14:34:09.337Z,84960
2019-06-15T14:35:19.057Z,83232
2019-06-15T14:36:29.081Z,81856
2019-06-15T14:37:39.063Z,82784
2019-06-15T14:38:48.780Z,86592
2019-06-15T14:39:58.751Z,85408
2019-06-15T14:41:08.747Z,85696
2019-06-15T14:42:18.785Z,84768
2019-06-15T14:43:28.790Z,83904
2019-06-15T14:44:38.258Z,86080
2019-06-15T14:46:03.115Z,88672
2019-06-15T14:47:12.850Z,83584
2019-06-15T14:48:22.822Z,78176
2019-06-15T14:49:32.819Z,79072
2019-06-15T14:50:42.820Z,77440
2019-06-15T14:51:55.796Z,73120
2019-06-15T14:53:05.805Z,73984
2019-06-15T14:54:16.168Z,76448
2019-06-15T14:55:28.636Z,84608
2019-06-15T14:56:38.630Z,101056
2019-06-15T14:57:48.594Z,94976
2019-06-15T14:59:01.107Z,73984
2019-06-15T15:00:16.692Z,56928
2019-06-15T15:01:28.632Z,50880
2019-06-15T15:02:39.388Z,48992
2019-06-15T15:03:52.005Z,49184
2019-06-15T15:05:06.840Z,49920
2019-06-15T15:06:19.532Z,50848
2019-06-15T15:07:31.262Z,50464
2019-06-15T15:08:43.865Z,49088
2019-06-15T15:09:59.208Z,51936
2019-06-15T15:11:11.470Z,57440
2019-06-15T15:12:23.372Z,66176
2019-06-15T15:13:36.397Z,71680
2019-06-15T15:14:50.042Z,72288
2019-06-15T15:16:01.827Z,72736
2019-06-15T15:17:17.171Z,72032
2019-06-15T15:18:29.497Z,70688
2019-06-15T15:19:40.948Z,75968
2019-06-15T15:20:50.917Z,77632
2019-06-15T15:22:00.890Z,79232
2019-06-15T15:23:13.486Z,84736
2019-06-15T15:24:24.009Z,84832
2019-06-15T15:25:39.382Z,78880
2019-06-15T15:26:51.803Z,81184
2019-06-15T15:28:04.265Z,84544
2019-06-15T15:29:16.259Z,83264
2019-06-15T15:30:26.998Z,84448
2019-06-15T15:31:38.699Z,86496
2019-06-15T15:32:51.528Z,87744
2019-06-15T15:34:07.746Z,84128
2019-06-15T15:35:18.513Z,87104